Time;durP1;ratioP1;P1;durP2;ratioP2;P2;SDS_P1;SDS_P2;PMS_P1;PMS_P2;Temp;Humidity;BMP_temperature;BMP_pressure;BME280_temperature;BME280_humidity;BME280_pressure;Samples;Min_cycle;Max_cycle;Signal;HPM_P1;HPM_P2
2022/08/03 00:02:34;;;;;;;4.30;4.10;;;20.90;1.00;;;;;;6244336;28;20381;-53
2022/08/03 00:05:39;;;;;;;4.20;4.00;;;21.00;1.00;;;;;;6253196;28;20233;-52
2022/08/03 00:09:02;;;;;;;4.60;4.27;;;21.00;1.00;;;;;;6259111;28;20242;-56
2022/08/03 00:12:05;;;;;;;4.33;3.97;;;21.00;1.00;;;;;;6245498;28;20364;-56
2022/08/03 00:15:09;;;;;;;4.70;4.30;;;21.00;1.00;;;;;;6258751;28;20764;-56
2022/08/03 00:18:17;;;;;;;5.20;4.50;;;21.00;1.00;;;;;;6260600;28;20230;-55
2022/08/03 00:21:21;;;;;;;5.37;4.77;;;20.90;1.00;;;;;;6237374;28;20243;-56
2022/08/03 00:24:24;;;;;;;5.33;5.03;;;20.90;1.00;;;;;;6244114;28;20251;-55
2022/08/03 00:27:27;;;;;;;5.10;4.70;;;20.90;1.00;;;;;;6236439;28;20778;-55
2022/08/03 00:30:35;;;;;;;4.43;4.23;;;20.90;1.00;;;;;;6234776;28;20263;-55
2022/08/03 00:33:38;;;;;;;4.77;4.37;;;20.80;1.00;;;;;;6244557;28;20250;-56
2022/08/03 00:37:02;;;;;;;4.90;4.60;;;20.80;1.00;;;;;;6241762;28;20235;-54
2022/08/03 00:40:06;;;;;;;4.60;4.40;;;20.90;1.00;;;;;;6234844;28;20491;-56
2022/08/03 00:43:09;;;;;;;4.20;4.10;;;20.80;1.00;;;;;;6235662;28;20337;-56
2022/08/03 00:46:12;;;;;;;4.67;4.43;;;20.80;1.00;;;;;;6246686;28;20248;-55
2022/08/03 00:49:22;;;;;;;4.90;4.50;;;20.80;1.00;;;;;;6235754;28;20243;-56
2022/08/03 00:52:27;;;;;;;4.53;4.37;;;20.80;1.00;;;;;;6236150;28;20252;-56
2022/08/03 00:55:29;;;;;;;4.87;4.60;;;20.80;1.00;;;;;;6243108;28;20241;-55
2022/08/03 00:58:34;;;;;;;4.23;4.03;;;20.80;1.00;;;;;;6234440;28;20235;-55
2022/08/03 01:01:37;;;;;;;4.73;4.53;;;20.80;1.00;;;;;;6234140;28;20340;-56
2022/08/03 01:04:40;;;;;;;5.07;4.80;;;20.80;1.00;;;;;;6246685;28;20241;-55
2022/08/03 01:07:59;;;;;;;4.90;4.70;;;20.80;1.00;;;;;;6259156;28;20657;-55
2022/08/03 01:11:10;;;;;;;4.60;4.37;;;20.80;1.00;;;;;;6259102;28;20261;-56
2022/08/03 01:14:16;;;;;;;4.40;4.20;;;20.70;1.00;;;;;;6249644;28;20304;-55
2022/08/03 01:17:35;;;;;;;4.83;4.57;;;20.70;1.00;;;;;;6240013;28;20269;-55
2022/08/03 01:20:43;;;;;;;5.17;4.70;;;20.70;1.00;;;;;;6251243;28;20230;-55
2022/08/03 01:24:05;;;;;;;4.90;4.60;;;20.70;1.00;;;;;;6252270;28;20508;-56
2022/08/03 01:27:14;;;;;;;4.30;4.10;;;20.70;1.00;;;;;;6236574;28;20476;-55
2022/08/03 01:30:19;;;;;;;4.27;4.07;;;20.70;1.00;;;;;;6235238;28;20627;-55
2022/08/03 01:33:25;;;;;;;4.60;4.30;;;20.60;1.00;;;;;;6243996;28;20249;-53
2022/08/03 01:36:34;;;;;;;4.73;4.43;;;20.60;1.00;;;;;;6252678;28;20714;-56
2022/08/03 01:39:39;;;;;;;4.50;4.20;;;20.60;1.00;;;;;;6249062;28;20488;-55
2022/08/03 01:42:44;;;;;;;4.67;4.47;;;20.70;1.00;;;;;;6234261;28;20243;-55
2022/08/03 01:45:48;;;;;;;4.67;4.50;;;20.70;1.00;;;;;;6233724;28;20226;-56
2022/08/03 01:48:52;;;;;;;5.13;4.73;;;20.60;1.00;;;;;;6233935;28;20318;-56
2022/08/03 01:51:57;;;;;;;4.83;4.53;;;20.70;1.00;;;;;;6234495;28;20408;-56
2022/08/03 01:55:08;;;;;;;5.00;4.70;;;20.70;1.00;;;;;;6242520;28;20227;-56
2022/08/03 01:58:13;;;;;;;4.70;4.50;;;20.70;1.00;;;;;;6237058;28;20523;-56
2022/08/03 02:01:18;;;;;;;5.10;4.70;;;20.70;1.00;;;;;;6249196;28;20873;-56
2022/08/03 02:04:23;;;;;;;4.90;4.70;;;20.70;1.00;;;;;;6249943;28;20243;-55
2022/08/03 02:07:28;;;;;;;4.90;4.80;;;20.70;1.00;;;;;;6239918;28;20326;-54
2022/08/03 02:10:33;;;;;;;4.83;4.63;;;20.70;1.00;;;;;;6233637;28;20240;-55
2022/08/03 02:13:39;;;;;;;4.70;4.50;;;20.80;1.00;;;;;;6233423;28;20262;-56
2022/08/03 02:16:44;;;;;;;4.60;4.40;;;20.80;1.00;;;;;;6233858;28;20285;-55
2022/08/03 02:19:48;;;;;;;4.33;4.10;;;20.80;1.00;;;;;;6234009;28;20294;-55
2022/08/03 02:22:51;;;;;;;4.33;4.17;;;20.80;1.00;;;;;;6233661;28;20325;-53
2022/08/03 02:26:00;;;;;;;4.33;4.13;;;20.90;1.00;;;;;;6241150;28;20306;-55
2022/08/03 02:29:10;;;;;;;4.33;4.17;;;20.80;1.00;;;;;;6232275;28;20258;-54
2022/08/03 02:32:20;;;;;;;3.90;3.70;;;20.90;1.00;;;;;;6234011;28;20235;-56
2022/08/03 02:35:25;;;;;;;4.27;4.10;;;20.90;1.00;;;;;;6233492;28;20308;-48
2022/08/03 02:38:31;;;;;;;5.00;4.70;;;20.90;1.00;;;;;;6257773;28;20234;-56
2022/08/03 02:41:41;;;;;;;4.30;4.17;;;20.90;1.00;;;;;;6260441;28;20316;-56
2022/08/03 02:44:48;;;;;;;4.53;4.33;;;20.90;1.00;;;;;;6245114;28;20520;-55
2022/08/03 02:47:55;;;;;;;5.53;4.60;;;20.90;1.00;;;;;;6238694;28;22171;-56
2022/08/03 02:51:00;;;;;;;4.50;4.10;;;20.90;1.00;;;;;;6238138;28;20242;-55
2022/08/03 02:54:04;;;;;;;4.50;4.30;;;20.90;1.00;;;;;;6244239;28;20286;-55
2022/08/03 02:57:09;;;;;;;4.70;4.40;;;20.90;1.00;;;;;;6239908;28;20241;-55
2022/08/03 03:00:14;;;;;;;4.33;4.23;;;20.90;1.00;;;;;;6237002;28;20325;-56
2022/08/03 03:03:32;;;;;;;4.60;4.40;;;20.90;1.00;;;;;;6247642;28;20315;-55
2022/08/03 03:06:47;;;;;;;4.10;4.00;;;20.90;1.00;;;;;;6258157;28;20245;-55
2022/08/03 03:09:52;;;;;;;3.40;3.30;;;20.90;1.00;;;;;;6257498;28;20238;-55
2022/08/03 03:12:58;;;;;;;4.13;4.00;;;20.90;1.00;;;;;;6248200;28;20529;-55
2022/08/03 03:16:04;;;;;;;4.00;3.90;;;20.90;1.00;;;;;;6237282;28;20235;-56
2022/08/03 03:19:11;;;;;;;4.30;4.10;;;20.90;1.00;;;;;;6236310;28;20249;-56
2022/08/03 03:22:15;;;;;;;4.90;4.53;;;20.80;1.00;;;;;;6237645;28;20604;-56
2022/08/03 03:25:20;;;;;;;4.47;4.27;;;20.80;1.00;;;;;;6254192;28;20242;-55
2022/08/03 03:28:24;;;;;;;4.20;4.10;;;20.70;1.00;;;;;;6261891;28;20282;-55
2022/08/03 03:31:26;;;;;;;3.83;3.63;;;20.70;1.00;;;;;;6250038;28;20609;-55
2022/08/03 03:34:31;;;;;;;4.30;4.13;;;20.70;1.00;;;;;;6241636;28;20617;-54
2022/08/03 03:37:35;;;;;;;4.00;3.90;;;20.70;1.00;;;;;;6240596;28;20345;-55
2022/08/03 03:40:38;;;;;;;4.23;4.00;;;20.70;1.00;;;;;;6238693;28;20235;-56
2022/08/03 03:43:41;;;;;;;3.97;3.87;;;20.70;1.00;;;;;;6240292;28;20321;-54
2022/08/03 03:46:44;;;;;;;4.13;3.93;;;20.70;1.00;;;;;;6254174;28;20315;-55
2022/08/03 03:49:49;;;;;;;4.57;4.27;;;20.70;1.00;;;;;;6246307;28;20426;-57
2022/08/03 03:52:54;;;;;;;4.27;4.13;;;20.70;1.00;;;;;;6244707;28;20223;-56
2022/08/03 03:55:57;;;;;;;4.60;4.40;;;20.60;1.00;;;;;;6253900;28;20360;-56
2022/08/03 03:59:04;;;;;;;4.10;3.93;;;20.60;1.00;;;;;;6249884;28;20591;-55
2022/08/03 04:02:08;;;;;;;4.60;4.30;;;20.60;1.00;;;;;;6258218;28;20230;-56
2022/08/03 04:11:58;;;;;;;4.43;4.20;;;20.60;1.00;;;;;;6250646;28;20276;-55
2022/08/03 04:15:03;;;;;;;4.43;4.20;;;20.60;1.00;;;;;;6247465;28;20305;-55
2022/08/03 04:18:09;;;;;;;4.53;4.40;;;20.60;1.00;;;;;;6253217;28;20230;-54
2022/08/03 04:21:17;;;;;;;4.63;4.47;;;20.60;1.00;;;;;;6259172;28;20230;-57
2022/08/03 04:24:22;;;;;;;4.70;4.60;;;20.60;1.00;;;;;;6253102;28;20270;-55
2022/08/03 04:27:33;;;;;;;4.20;4.10;;;20.60;1.00;;;;;;6257347;28;20426;-55
2022/08/03 04:30:38;;;;;;;4.70;4.50;;;20.60;1.00;;;;;;6256108;28;20234;-54
2022/08/03 04:33:42;;;;;;;4.80;4.60;;;20.60;1.00;;;;;;6252406;28;20636;-56
2022/08/03 04:36:50;;;;;;;4.57;4.37;;;20.60;1.00;;;;;;6245759;28;20232;-56
2022/08/03 04:39:54;;;;;;;4.40;4.13;;;20.60;1.00;;;;;;6251338;28;20320;-55
2022/08/03 04:43:00;;;;;;;6.70;5.07;;;20.60;1.00;;;;;;6252323;28;20245;-55
2022/08/03 04:46:04;;;;;;;5.33;5.13;;;20.60;1.00;;;;;;6249902;28;20238;-56
2022/08/03 04:49:07;;;;;;;4.93;4.73;;;20.70;1.00;;;;;;6255557;28;20393;-56
2022/08/03 04:52:14;;;;;;;5.67;5.17;;;20.70;1.00;;;;;;6256066;28;20230;-56
2022/08/03 04:55:26;;;;;;;5.80;5.50;;;20.70;1.00;;;;;;6247451;28;20227;-55
2022/08/03 04:58:28;;;;;;;6.70;6.20;;;20.80;1.00;;;;;;6249898;28;20279;-56
2022/08/03 05:01:31;;;;;;;5.10;4.77;;;20.80;1.00;;;;;;6250124;28;20475;-54
2022/08/03 05:04:34;;;;;;;4.83;4.53;;;20.90;1.00;;;;;;6252377;28;20291;-55
2022/08/03 05:07:38;;;;;;;5.63;5.13;;;21.00;1.00;;;;;;6252528;28;20700;-55
2022/08/03 05:10:41;;;;;;;5.27;4.97;;;21.20;1.00;;;;;;6246585;28;20333;-56
2022/08/03 05:13:44;;;;;;;5.83;5.37;;;21.40;1.00;;;;;;6256157;28;20307;-57
2022/08/03 05:16:47;;;;;;;5.57;5.27;;;21.60;1.00;;;;;;6257106;28;20332;-56
2022/08/03 05:19:53;;;;;;;5.40;5.10;;;21.70;1.00;;;;;;6241809;28;20222;-56
2022/08/03 05:22:58;;;;;;;6.40;5.87;;;22.00;1.00;;;;;;6254220;28;20305;-57
2022/08/03 05:26:00;;;;;;;6.23;5.70;;;22.10;1.00;;;;;;6241273;28;20308;-56
2022/08/03 05:29:03;;;;;;;6.23;5.83;;;22.40;1.00;;;;;;6258911;28;20238;-54
2022/08/03 05:32:06;;;;;;;5.70;5.23;;;22.60;1.00;;;;;;6242101;28;20317;-56
2022/08/03 05:35:10;;;;;;;5.97;5.47;;;22.90;1.00;;;;;;6250063;28;20654;-56
2022/08/03 05:38:35;;;;;;;5.33;4.90;;;23.10;1.00;;;;;;6250465;28;20534;-56
2022/08/03 05:41:38;;;;;;;6.13;5.47;;;23.30;1.00;;;;;;6248717;28;20312;-55
2022/08/03 05:44:40;;;;;;;5.47;5.07;;;23.60;1.00;;;;;;6244758;28;20305;-56
2022/08/03 05:47:44;;;;;;;7.77;4.90;;;23.90;1.00;;;;;;6243270;28;20767;-56
2022/08/03 05:50:47;;;;;;;5.17;4.77;;;24.20;1.00;;;;;;6245187;28;20469;-54
2022/08/03 05:53:51;;;;;;;4.80;4.60;;;24.40;1.00;;;;;;6250342;28;20608;-57
2022/08/03 05:56:54;;;;;;;6.30;4.43;;;24.70;1.00;;;;;;6246153;28;20227;-56
2022/08/03 05:59:57;;;;;;;6.47;5.20;;;25.00;1.00;;;;;;6253348;28;20240;-56
2022/08/03 06:03:01;;;;;;;5.60;5.23;;;25.20;1.00;;;;;;6243750;28;20231;-54
2022/08/03 06:06:04;;;;;;;5.07;4.63;;;25.20;1.00;;;;;;6240581;28;20226;-55
2022/08/03 06:09:09;;;;;;;6.70;4.60;;;25.30;1.00;;;;;;6245819;28;20403;-56
2022/08/03 06:12:12;;;;;;;12.00;5.17;;;25.50;1.00;;;;;;6244273;28;20923;-60
2022/08/03 06:15:17;;;;;;;5.50;5.00;;;25.50;1.00;;;;;;6247670;28;20325;-55
2022/08/03 06:18:20;;;;;;;8.27;5.13;;;25.60;1.00;;;;;;6247342;28;20375;-55
2022/08/03 06:21:23;;;;;;;8.73;5.30;;;25.90;1.00;;;;;;6249377;28;20760;-59
2022/08/03 06:24:30;;;;;;;5.00;4.57;;;25.90;1.00;;;;;;6253794;28;20234;-54
2022/08/03 06:27:33;;;;;;;5.13;4.70;;;26.00;1.00;;;;;;6238258;28;20321;-56
2022/08/03 06:30:39;;;;;;;5.87;5.27;;;26.10;1.00;;;;;;6253615;28;20230;-54
2022/08/03 06:33:42;;;;;;;4.80;4.40;;;26.40;1.00;;;;;;6234297;28;20580;-50
2022/08/03 06:37:05;;;;;;;4.23;4.00;;;26.70;1.00;;;;;;6241583;28;20238;-56
2022/08/03 06:40:11;;;;;;;7.63;4.23;;;26.90;1.00;;;;;;6242822;28;20248;-55
2022/08/03 06:43:15;;;;;;;5.33;4.03;;;27.20;1.00;;;;;;6247449;28;20624;-55
2022/08/03 06:46:19;;;;;;;3.83;3.50;;;27.50;1.00;;;;;;6246355;28;20611;-55
2022/08/03 06:49:22;;;;;;;6.77;3.47;;;27.80;1.00;;;;;;6258432;28;20367;-56
2022/08/03 06:52:25;;;;;;;3.77;3.47;;;28.00;1.00;;;;;;6255884;28;20545;-56
2022/08/03 06:55:41;;;;;;;7.50;3.10;;;28.20;1.00;;;;;;6244532;28;20235;-54
2022/08/03 06:58:45;;;;;;;4.03;3.73;;;28.20;1.00;;;;;;6241449;28;20237;-55
2022/08/03 07:01:48;;;;;;;4.97;3.30;;;28.00;1.00;;;;;;6244592;28;20252;-56
2022/08/03 07:04:51;;;;;;;5.83;3.40;;;28.30;1.00;;;;;;6246071;28;20237;-56
2022/08/03 07:07:55;;;;;;;3.33;3.17;;;28.10;1.00;;;;;;6253441;28;20261;-55
2022/08/03 07:11:00;;;;;;;3.60;3.40;;;28.20;1.00;;;;;;6251500;28;20381;-55
2022/08/03 07:14:04;;;;;;;7.28;3.30;;;28.50;1.00;;;;;;6250356;28;20242;-56
2022/08/03 07:17:07;;;;;;;3.30;3.10;;;28.70;1.00;;;;;;6249658;28;20664;-55
2022/08/03 07:20:14;;;;;;;3.87;3.27;;;28.70;1.00;;;;;;6234711;28;20245;-55
2022/08/03 07:23:16;;;;;;;3.38;3.17;;;28.80;1.00;;;;;;6248536;28;20222;-55
2022/08/03 07:26:22;;;;;;;3.42;3.10;;;28.90;1.00;;;;;;6240229;28;20289;-56
2022/08/03 07:29:25;;;;;;;3.47;3.17;;;28.80;1.00;;;;;;6258266;28;20324;-54
2022/08/03 07:32:30;;;;;;;4.07;3.07;;;28.90;1.00;;;;;;6258609;28;20353;-55
2022/08/03 07:35:33;;;;;;;4.13;3.43;;;28.80;1.00;;;;;;6255929;28;20716;-56
2022/08/03 07:38:36;;;;;;;5.30;3.57;;;28.50;1.00;;;;;;6244819;28;20312;-55
2022/08/03 07:41:40;;;;;;;3.30;3.10;;;28.50;1.00;;;;;;6253225;28;20328;-55
2022/08/03 07:44:43;;;;;;;7.07;3.13;;;28.30;1.00;;;;;;6251556;28;20473;-55
2022/08/03 07:47:46;;;;;;;5.10;3.20;;;28.30;1.00;;;;;;6257760;28;20459;-56
2022/08/03 07:50:55;;;;;;;5.57;3.03;;;28.10;1.00;;;;;;6260610;28;20741;-55
2022/08/03 07:53:59;;;;;;;3.57;3.13;;;28.10;1.00;;;;;;6251928;28;20277;-54
2022/08/03 07:57:04;;;;;;;3.10;2.90;;;28.20;1.00;;;;;;6258974;28;20316;-56
2022/08/03 08:00:12;;;;;;;3.20;3.00;;;28.20;1.00;;;;;;6253695;28;20238;-54
2022/08/03 08:03:15;;;;;;;3.20;3.10;;;28.20;1.00;;;;;;6234033;28;20322;-52
2022/08/03 08:06:18;;;;;;;3.27;2.93;;;28.10;1.00;;;;;;6251506;28;20483;-55
2022/08/03 08:09:22;;;;;;;4.03;3.10;;;28.10;1.00;;;;;;6256326;28;20629;-54
2022/08/03 08:12:26;;;;;;;4.07;3.20;;;28.10;1.00;;;;;;6251179;28;20240;-55
2022/08/03 08:15:30;;;;;;;5.93;3.10;;;28.10;1.00;;;;;;6239596;28;20250;-58
2022/08/03 08:18:33;;;;;;;3.90;3.43;;;28.20;1.00;;;;;;6243561;28;20241;-55
2022/08/03 08:21:36;;;;;;;4.17;3.07;;;28.20;1.00;;;;;;6241922;28;20230;-55
2022/08/03 08:24:59;;;;;;;3.80;3.10;;;28.20;1.00;;;;;;6247701;28;20230;-54
2022/08/03 08:28:05;;;;;;;5.30;3.30;;;28.20;1.00;;;;;;6246674;28;20295;-54
2022/08/03 08:31:27;;;;;;;3.60;3.30;;;28.30;1.00;;;;;;6249417;28;20230;-56
2022/08/03 08:34:30;;;;;;;3.00;2.90;;;28.20;1.00;;;;;;6258126;28;20536;-55
2022/08/03 08:37:34;;;;;;;3.40;3.07;;;28.30;1.00;;;;;;6257257;28;20234;-53
2022/08/03 08:40:37;;;;;;;4.47;3.37;;;28.40;1.00;;;;;;6250415;28;20727;-54
2022/08/03 08:43:42;;;;;;;2.87;2.67;;;28.60;1.00;;;;;;6251614;28;20229;-55
2022/08/03 08:46:46;;;;;;;2.90;2.70;;;28.60;1.00;;;;;;6258228;28;20284;-54
2022/08/03 08:49:52;;;;;;;3.03;2.83;;;28.60;1.00;;;;;;6251931;28;20311;-54
2022/08/03 08:53:13;;;;;;;4.20;2.80;;;28.70;1.00;;;;;;6253620;28;20428;-54
2022/08/03 08:56:24;;;;;;;2.60;2.60;;;28.80;1.00;;;;;;6249693;28;20302;-54
2022/08/03 08:59:29;;;;;;;4.10;3.00;;;29.00;1.00;;;;;;6247687;28;20238;-56
2022/08/03 09:02:49;;;;;;;3.13;3.03;;;29.10;1.00;;;;;;6259066;28;20636;-56
2022/08/03 09:05:53;;;;;;;3.13;2.83;;;29.10;1.00;;;;;;6244822;28;20349;-53
2022/08/03 09:08:58;;;;;;;5.15;3.03;;;29.30;1.00;;;;;;6246836;28;20465;-53
2022/08/03 09:12:01;;;;;;;2.65;2.63;;;29.20;1.00;;;;;;6249345;28;20233;-55
2022/08/03 09:15:27;;;;;;;2.77;2.77;;;29.20;1.00;;;;;;6245501;28;20235;-55
2022/08/03 09:18:30;;;;;;;2.80;2.50;;;29.30;1.00;;;;;;6236221;28;20247;-54
2022/08/03 09:21:34;;;;;;;2.67;2.58;;;29.40;1.00;;;;;;6255896;28;20393;-55
2022/08/03 09:24:39;;;;;;;3.25;2.90;;;29.50;1.00;;;;;;6256649;28;20742;-56
2022/08/03 09:27:44;;;;;;;3.65;2.47;;;29.70;1.00;;;;;;6251602;28;20710;-56
2022/08/03 09:30:59;;;;;;;2.75;2.70;;;29.80;1.00;;;;;;6245027;28;20253;-54
2022/08/03 09:34:04;;;;;;;2.78;2.67;;;29.80;1.00;;;;;;6252964;28;20325;-55
2022/08/03 09:37:13;;;;;;;2.83;2.72;;;30.00;1.00;;;;;;6256491;28;20222;-54
2022/08/03 09:40:34;;;;;;;2.80;2.65;;;29.90;1.00;;;;;;6243687;28;20234;-55
2022/08/03 09:43:46;;;;;;;3.20;2.92;;;30.00;1.00;;;;;;6254235;28;20238;-55
2022/08/03 09:46:52;;;;;;;2.25;2.25;;;30.00;1.00;;;;;;6251386;28;20321;-55
2022/08/03 09:50:00;;;;;;;3.00;2.90;;;30.10;1.00;;;;;;6253368;28;20260;-56
2022/08/03 09:53:04;;;;;;;2.67;2.47;;;30.20;1.00;;;;;;6251244;28;20802;-55
2022/08/03 09:56:07;;;;;;;3.13;2.85;;;30.30;1.00;;;;;;6253842;28;20243;-51
2022/08/03 09:59:31;;;;;;;2.72;2.40;;;30.40;1.00;;;;;;6252959;28;20286;-56
2022/08/03 10:02:37;;;;;;;2.88;2.60;;;30.40;1.00;;;;;;6252349;28;20336;-55
2022/08/03 10:05:43;;;;;;;2.38;2.30;;;30.50;1.00;;;;;;6244435;28;20291;-54
2022/08/03 10:08:46;;;;;;;2.63;2.55;;;30.50;1.00;;;;;;6241935;28;20234;-52
2022/08/03 10:11:49;;;;;;;2.42;2.33;;;30.60;1.00;;;;;;6252865;28;20319;-55
2022/08/03 10:14:52;;;;;;;2.78;2.70;;;30.50;1.00;;;;;;6247503;28;20757;-53
2022/08/03 10:17:56;;;;;;;2.53;2.42;;;30.50;1.00;;;;;;6249261;28;20337;-55
2022/08/03 10:21:04;;;;;;;2.40;2.20;;;30.60;1.00;;;;;;6250650;28;20279;-55
2022/08/03 10:24:09;;;;;;;2.20;2.05;;;30.80;1.00;;;;;;6251240;28;20677;-54
2022/08/03 10:27:14;;;;;;;3.22;2.70;;;30.80;1.00;;;;;;6250842;28;20329;-55
2022/08/03 10:30:18;;;;;;;5.82;2.70;;;30.90;1.00;;;;;;6245848;28;20245;-54
2022/08/03 10:33:34;;;;;;;2.95;2.67;;;31.00;1.00;;;;;;6249664;28;20394;-55
2022/08/03 10:36:58;;;;;;;2.58;2.47;;;31.10;1.00;;;;;;6241695;28;20230;-55
2022/08/03 10:40:03;;;;;;;2.47;2.25;;;31.20;1.00;;;;;;6240740;28;20280;-55
2022/08/03 10:43:10;;;;;;;2.42;2.22;;;31.30;1.00;;;;;;6248524;28;20430;-55
2022/08/03 10:46:15;;;;;;;2.95;2.72;;;31.30;1.00;;;;;;6241123;28;20241;-52
2022/08/03 10:49:21;;;;;;;3.15;2.70;;;31.30;1.00;;;;;;6244190;28;20288;-54
2022/08/03 10:52:54;;;;;;;3.33;2.90;;;31.10;1.00;;;;;;6246993;28;20322;-55
2022/08/03 10:59:56;;;;;;;2.28;2.17;;;31.20;1.00;;;;;;6241319;28;20250;-54
2022/08/03 11:03:08;;;;;;;2.70;2.67;;;31.40;1.00;;;;;;6254260;28;20256;-54
2022/08/03 11:06:19;;;;;;;2.25;2.15;;;31.40;1.00;;;;;;6252195;28;20235;-54
2022/08/03 11:09:21;;;;;;;6.28;2.85;;;31.50;1.00;;;;;;6257812;28;20330;-54
2022/08/03 11:12:26;;;;;;;2.60;2.50;;;31.60;1.00;;;;;;6259675;28;20299;-55
2022/08/03 11:15:34;;;;;;;2.70;2.60;;;31.70;1.00;;;;;;6253359;28;20226;-54
2022/08/03 11:18:56;;;;;;;2.58;2.47;;;31.60;1.00;;;;;;6246986;28;20232;-55
2022/08/03 11:22:00;;;;;;;2.60;2.40;;;31.70;1.00;;;;;;6244124;28;20242;-54
2022/08/03 11:25:04;;;;;;;3.53;2.65;;;31.80;1.00;;;;;;6256734;28;20238;-54
2022/08/03 11:28:25;;;;;;;2.17;2.13;;;31.70;1.00;;;;;;6251329;28;20321;-55
2022/08/03 11:31:46;;;;;;;2.60;2.40;;;31.70;1.00;;;;;;6248685;28;20230;-54
2022/08/03 11:35:07;;;;;;;3.42;2.25;;;31.70;1.00;;;;;;6247832;28;20218;-55
2022/08/03 11:38:12;;;;;;;2.72;2.63;;;31.90;1.00;;;;;;6252360;28;20658;-56
2022/08/03 11:41:33;;;;;;;2.40;2.38;;;31.90;1.00;;;;;;6247639;28;20238;-55
2022/08/03 11:44:47;;;;;;;2.40;2.25;;;32.10;1.00;;;;;;6249543;28;20746;-56
2022/08/03 11:47:54;;;;;;;6.32;2.58;;;32.10;1.00;;;;;;6261774;28;20240;-54
2022/08/03 11:50:57;;;;;;;3.03;2.83;;;32.30;1.00;;;;;;6252922;28;20230;-55
2022/08/03 11:54:05;;;;;;;2.20;2.20;;;32.40;1.00;;;;;;6250275;28;20250;-54
2022/08/03 11:57:09;;;;;;;2.72;2.55;;;32.40;1.00;;;;;;6255641;28;20227;-54
2022/08/03 12:00:29;;;;;;;2.70;2.50;;;32.50;1.00;;;;;;6243942;28;20316;-54
2022/08/03 12:03:34;;;;;;;2.60;2.50;;;32.50;1.00;;;;;;6253151;28;20242;-54
2022/08/03 12:10:09;;;;;;;2.00;1.90;;;32.50;1.00;;;;;;6246003;28;20817;-55
2022/08/03 12:13:12;;;;;;;3.90;2.30;;;32.50;1.00;;;;;;6252114;28;20389;-56
2022/08/03 12:16:35;;;;;;;2.20;2.20;;;32.40;1.00;;;;;;6248317;28;20226;-55
2022/08/03 12:19:44;;;;;;;3.28;2.50;;;32.40;1.00;;;;;;6258840;28;20297;-55
2022/08/03 12:22:47;;;;;;;2.97;2.80;;;32.30;1.00;;;;;;6257791;28;20726;-54
2022/08/03 12:25:51;;;;;;;2.70;2.60;;;32.30;1.00;;;;;;6255463;28;20332;-54
2022/08/03 12:28:57;;;;;;;4.18;2.50;;;32.40;1.00;;;;;;6245370;28;20225;-53
2022/08/03 12:32:00;;;;;;;2.85;2.70;;;32.40;1.00;;;;;;6243386;28;20446;-54
2022/08/03 12:35:04;;;;;;;2.85;2.72;;;32.50;1.00;;;;;;6257114;28;20317;-53
2022/08/03 12:38:07;;;;;;;2.65;2.60;;;32.50;1.00;;;;;;6246822;28;20863;-54
2022/08/03 12:41:14;;;;;;;3.70;2.50;;;32.40;1.00;;;;;;6258497;28;20234;-55
2022/08/03 12:44:17;;;;;;;2.83;2.55;;;32.30;1.00;;;;;;6250171;28;20426;-55
2022/08/03 12:47:20;;;;;;;2.08;2.08;;;32.40;1.00;;;;;;6243874;28;20312;-56
2022/08/03 12:50:25;;;;;;;2.30;2.20;;;32.50;1.00;;;;;;6244564;28;20246;-55
2022/08/03 12:53:29;;;;;;;2.13;2.10;;;32.50;1.00;;;;;;6255810;28;20284;-54
2022/08/03 12:56:34;;;;;;;2.22;2.13;;;32.60;1.00;;;;;;6253684;28;20723;-56
2022/08/03 12:59:41;;;;;;;2.05;2.00;;;32.70;1.00;;;;;;6257806;28;20241;-55
2022/08/03 13:03:03;;;;;;;2.60;2.30;;;32.80;1.00;;;;;;6255133;28;20316;-52
2022/08/03 13:06:26;;;;;;;2.53;2.33;;;32.90;1.00;;;;;;6249197;28;20248;-54
2022/08/03 13:09:30;;;;;;;2.20;2.10;;;32.90;1.00;;;;;;6248621;28;20234;-56
2022/08/03 13:12:47;;;;;;;2.75;2.53;;;33.10;1.00;;;;;;6256886;28;20321;-56
2022/08/03 13:15:51;;;;;;;3.40;2.30;;;33.10;1.00;;;;;;6249969;28;20246;-56
2022/08/03 13:18:55;;;;;;;2.20;2.08;;;33.20;1.00;;;;;;6249885;28;20293;-54
2022/08/03 13:21:57;;;;;;;1.92;1.90;;;33.30;1.00;;;;;;6250446;28;20235;-55
2022/08/03 13:25:07;;;;;;;5.57;2.00;;;33.30;1.00;;;;;;6239901;28;20678;-50
2022/08/03 13:28:11;;;;;;;2.00;1.90;;;33.30;1.00;;;;;;6253386;28;20798;-55
2022/08/03 13:31:16;;;;;;;2.25;2.20;;;33.30;1.00;;;;;;6250505;28;20233;-54
2022/08/03 13:34:19;;;;;;;2.38;2.22;;;33.10;1.00;;;;;;6245818;28;20296;-55
2022/08/03 13:37:26;;;;;;;4.05;2.20;;;33.10;1.00;;;;;;6254784;28;20361;-54
2022/08/03 13:40:31;;;;;;;2.17;2.08;;;33.20;1.00;;;;;;6245062;28;20245;-54
2022/08/03 13:43:44;;;;;;;2.15;2.15;;;33.20;1.00;;;;;;6247046;28;20593;-55
2022/08/03 13:46:48;;;;;;;2.63;2.50;;;33.40;1.00;;;;;;6249855;28;20233;-55
2022/08/03 13:49:52;;;;;;;2.10;2.05;;;33.40;1.00;;;;;;6246815;28;20233;-55
2022/08/03 13:53:02;;;;;;;2.20;2.20;;;33.60;1.00;;;;;;6245793;28;20644;-56
2022/08/03 13:56:05;;;;;;;1.67;1.67;;;33.60;1.00;;;;;;6255772;28;20234;-56
2022/08/03 13:59:09;;;;;;;2.33;2.22;;;33.70;1.00;;;;;;6248731;28;20708;-54
2022/08/03 14:02:12;;;;;;;2.00;1.95;;;33.80;1.00;;;;;;6245737;28;20226;-55
2022/08/03 14:05:15;;;;;;;2.33;2.22;;;33.70;1.00;;;;;;6242336;28;20367;-54
2022/08/03 14:08:18;;;;;;;2.75;1.98;;;33.80;1.00;;;;;;6251508;28;20237;-54
2022/08/03 14:11:21;;;;;;;2.45;2.30;;;33.80;1.00;;;;;;6243713;28;20261;-55
2022/08/03 14:14:25;;;;;;;2.40;2.20;;;33.80;1.00;;;;;;6247401;28;20353;-53
2022/08/03 14:17:28;;;;;;;2.15;2.15;;;33.80;1.00;;;;;;6243706;28;20279;-54
2022/08/03 14:20:51;;;;;;;3.00;2.00;;;33.80;1.00;;;;;;6243032;28;20241;-54
2022/08/03 14:23:59;;;;;;;2.40;2.17;;;33.70;1.00;;;;;;6256628;28;20234;-54
2022/08/03 14:27:02;;;;;;;2.38;2.05;;;33.60;1.00;;;;;;6243945;28;20229;-54
2022/08/03 14:30:13;;;;;;;2.15;2.05;;;33.70;1.00;;;;;;6252341;28;20233;-55
2022/08/03 14:33:16;;;;;;;2.22;2.03;;;33.80;1.00;;;;;;6255603;28;20742;-55
2022/08/03 14:36:19;;;;;;;2.85;2.50;;;33.70;1.00;;;;;;6255635;28;20329;-54
2022/08/03 14:39:22;;;;;;;2.05;1.95;;;33.70;1.00;;;;;;6255705;28;20636;-54
2022/08/03 14:42:25;;;;;;;3.25;1.90;;;33.60;1.00;;;;;;6239477;28;20246;-55
2022/08/03 14:45:29;;;;;;;2.33;2.13;;;33.60;1.00;;;;;;6247499;28;20230;-56
2022/08/03 14:48:32;;;;;;;2.40;2.20;;;33.80;1.00;;;;;;6253978;28;20333;-55
2022/08/03 14:51:55;;;;;;;2.00;2.00;;;33.80;1.00;;;;;;6254383;28;20283;-54
2022/08/03 14:54:58;;;;;;;2.88;1.90;;;33.90;1.00;;;;;;6255141;28;20302;-54
2022/08/03 14:58:04;;;;;;;2.10;2.00;;;34.00;1.00;;;;;;6252976;28;20230;-54
2022/08/03 15:01:23;;;;;;;2.22;2.13;;;34.10;1.00;;;;;;6254784;28;20573;-54
2022/08/03 15:04:46;;;;;;;2.40;2.30;;;34.20;1.00;;;;;;6248076;28;20397;-54
2022/08/03 15:07:48;;;;;;;2.22;2.13;;;34.20;1.00;;;;;;6256766;28;20361;-54
2022/08/03 15:10:52;;;;;;;4.97;2.38;;;34.20;1.00;;;;;;6252396;28;20337;-55
2022/08/03 15:13:54;;;;;;;2.50;2.40;;;34.20;1.00;;;;;;6251520;28;20226;-53
2022/08/03 15:16:59;;;;;;;2.72;2.50;;;34.30;1.00;;;;;;6252653;28;20307;-54
2022/08/03 15:20:02;;;;;;;2.63;1.80;;;34.40;1.00;;;;;;6241663;28;20611;-53
2022/08/03 15:23:25;;;;;;;2.35;2.25;;;34.20;1.00;;;;;;6251315;28;20715;-54
2022/08/03 15:26:28;;;;;;;2.33;2.20;;;34.20;1.00;;;;;;6238344;28;20349;-57
2022/08/03 15:29:41;;;;;;;2.10;2.00;;;34.20;1.00;;;;;;6254550;28;20235;-53
2022/08/03 15:33:06;;;;;;;2.20;2.20;;;34.20;1.00;;;;;;6246215;28;20588;-54
2022/08/03 15:36:09;;;;;;;4.72;2.28;;;34.10;1.00;;;;;;6253577;28;20240;-55
2022/08/03 15:39:11;;;;;;;2.20;2.10;;;34.10;1.00;;;;;;6256556;28;20246;-54
2022/08/03 15:42:15;;;;;;;2.70;2.50;;;34.00;1.00;;;;;;6247576;28;20312;-54
2022/08/03 15:45:17;;;;;;;2.15;2.05;;;33.80;1.00;;;;;;6253322;28;20336;-55
2022/08/03 15:48:24;;;;;;;3.03;2.83;;;33.80;1.00;;;;;;6244125;28;20327;-53
2022/08/03 15:51:28;;;;;;;2.10;2.10;;;33.60;1.00;;;;;;6257133;28;20357;-54
2022/08/03 15:54:31;;;;;;;2.63;2.53;;;33.70;1.00;;;;;;6253534;28;20291;-54
2022/08/03 15:57:34;;;;;;;2.78;2.58;;;33.80;1.00;;;;;;6252180;28;20234;-55
2022/08/03 16:01:00;;;;;;;3.08;2.88;;;33.90;1.00;;;;;;6254823;28;20230;-55
2022/08/03 16:04:05;;;;;;;2.45;2.35;;;33.90;1.00;;;;;;6247189;28;20231;-53
2022/08/03 16:07:08;;;;;;;3.08;2.58;;;33.90;1.00;;;;;;6251319;28;20257;-53
2022/08/03 16:10:16;;;;;;;2.70;2.60;;;33.90;1.00;;;;;;6239272;28;20372;-55
2022/08/03 16:13:19;;;;;;;2.25;2.15;;;33.80;1.00;;;;;;6252689;28;20231;-54
2022/08/03 16:16:22;;;;;;;2.20;2.20;;;33.80;1.00;;;;;;6252771;28;20764;-54
2022/08/03 16:19:27;;;;;;;2.30;2.25;;;33.80;1.00;;;;;;6258044;28;20375;-54
2022/08/03 16:22:30;;;;;;;2.35;2.25;;;33.70;1.00;;;;;;6253750;28;20234;-55
2022/08/03 16:25:34;;;;;;;2.60;2.50;;;33.50;1.00;;;;;;6256065;28;20238;-54
2022/08/03 16:28:37;;;;;;;3.58;2.60;;;33.60;1.00;;;;;;6255737;28;20234;-54
2022/08/03 16:31:40;;;;;;;2.80;2.63;;;33.40;1.00;;;;;;6250681;28;20330;-54
2022/08/03 16:34:54;;;;;;;4.60;2.88;;;33.30;1.00;;;;;;6242118;28;20218;-54
2022/08/03 16:37:57;;;;;;;2.42;2.33;;;33.30;1.00;;;;;;6256845;28;20448;-54
2022/08/03 16:41:00;;;;;;;2.42;2.22;;;33.20;1.00;;;;;;6241012;28;20240;-54